createdAt,value
2017-04-30T00:00:18.733Z,4.4
2017-04-30T00:01:29.805Z,4.46
2017-04-30T00:02:41.057Z,4.42
2017-04-30T00:03:52.297Z,4.26
2017-04-30T00:05:03.720Z,4.35
2017-04-30T00:06:14.752Z,4.26
2017-04-30T00:07:25.796Z,4.24
2017-04-30T00:08:36.827Z,4.33
2017-04-30T00:09:47.860Z,4.33
2017-04-30T00:10:58.884Z,4.38
2017-04-30T00:12:09.904Z,4.22
2017-04-30T00:13:20.936Z,4.21
2017-04-30T00:14:31.973Z,4.26
2017-04-30T00:15:43.012Z,4.21
2017-04-30T00:16:54.248Z,4.17
2017-04-30T00:18:05.325Z,4.07
2017-04-30T00:19:16.357Z,4.1
2017-04-30T00:20:27.394Z,4.1
2017-04-30T00:21:38.431Z,4.11
2017-04-30T00:22:49.460Z,4.02
2017-04-30T00:24:00.687Z,3.9
2017-04-30T00:25:11.723Z,3.9
2017-04-30T00:26:22.746Z,3.97
2017-04-30T00:27:33.790Z,3.94
2017-04-30T00:28:44.882Z,3.96
2017-04-30T00:29:55.920Z,3.96
2017-04-30T00:31:06.947Z,3.86
2017-04-30T00:32:17.975Z,3.96
2017-04-30T00:33:29.009Z,3.94
2017-04-30T00:34:40.040Z,4.04
2017-04-30T00:35:51.062Z,3.94
2017-04-30T00:37:02.092Z,3.94
2017-04-30T00:38:13.125Z,3.94
2017-04-30T00:39:24.198Z,3.92
2017-04-30T00:40:35.232Z,3.86
2017-04-30T00:41:46.455Z,3.76
2017-04-30T00:42:57.701Z,3.75
2017-04-30T00:44:08.742Z,3.9
2017-04-30T00:45:19.974Z,3.86
2017-04-30T00:46:30.997Z,3.85
2017-04-30T00:47:42.240Z,3.85
2017-04-30T00:48:53.261Z,3.79
2017-04-30T00:50:04.295Z,3.85
2017-04-30T00:51:15.519Z,3.72
2017-04-30T00:52:26.546Z,3.71
2017-04-30T00:53:37.595Z,3.69
2017-04-30T00:54:48.637Z,3.74
2017-04-30T00:55:59.678Z,3.74
2017-04-30T00:57:10.726Z,3.74
2017-04-30T00:58:22.174Z,3.72
2017-04-30T00:59:33.250Z,3.74
2017-04-30T01:00:44.314Z,3.74
2017-04-30T01:01:55.343Z,3.74
2017-04-30T01:03:06.373Z,3.67
2017-04-30T01:04:17.407Z,3.6
2017-04-30T01:05:28.424Z,3.66
2017-04-30T01:06:39.457Z,3.6
2017-04-30T01:07:50.486Z,3.6
2017-04-30T01:09:01.506Z,3.58
2017-04-30T01:10:12.543Z,3.56
2017-04-30T01:11:24.031Z,3.58
2017-04-30T01:12:35.050Z,3.48
2017-04-30T01:13:46.090Z,3.53
2017-04-30T01:14:57.118Z,3.49
2017-04-30T01:16:08.143Z,3.48
2017-04-30T01:17:19.374Z,3.54
2017-04-30T01:18:30.613Z,3.45
2017-04-30T01:19:41.643Z,3.48
2017-04-30T01:20:52.683Z,3.56
2017-04-30T01:22:04.365Z,3.49
2017-04-30T01:23:15.599Z,3.56
2017-04-30T01:24:26.832Z,3.53
2017-04-30T01:25:37.864Z,3.51
2017-04-30T01:26:48.908Z,3.43
2017-04-30T01:27:59.941Z,3.53
2017-04-30T01:29:10.964Z,3.39
2017-04-30T01:30:22.388Z,3.54
2017-04-30T01:31:33.457Z,3.35
2017-04-30T01:32:44.493Z,3.34
2017-04-30T01:33:55.525Z,3.26
2017-04-30T01:35:06.551Z,3.32
2017-04-30T01:36:17.776Z,3.27
2017-04-30T01:37:28.840Z,3.35
2017-04-30T01:38:39.874Z,3.32
2017-04-30T01:39:50.907Z,3.27
2017-04-30T01:41:01.926Z,3.24
2017-04-30T01:42:13.159Z,3.29
2017-04-30T01:43:24.393Z,3.2
2017-04-30T01:44:35.482Z,3.29
2017-04-30T01:45:46.717Z,3.23
2017-04-30T01:46:57.736Z,3.23
2017-04-30T01:48:08.751Z,3.21
2017-04-30T01:49:19.781Z,3.14
2017-04-30T01:50:31.007Z,3.17
2017-04-30T01:51:42.041Z,3.16
2017-04-30T01:52:53.091Z,3.14
2017-04-30T01:54:04.173Z,3.2
2017-04-30T01:55:15.408Z,3.17
2017-04-30T01:56:26.642Z,3.14
2017-04-30T01:57:37.673Z,3.13
2017-04-30T01:58:48.700Z,3.08
2017-04-30T01:59:59.733Z,3.19
2017-04-30T02:01:10.805Z,3.14
2017-04-30T02:02:21.837Z,3.08
2017-04-30T02:03:32.865Z,3.13
2017-04-30T02:04:43.945Z,3.13
2017-04-30T02:05:54.967Z,3.14
2017-04-30T02:07:06.399Z,3.14
2017-04-30T02:08:17.469Z,3.2
2017-04-30T02:09:28.518Z,3.19
2017-04-30T02:10:39.538Z,3.14
2017-04-30T02:11:50.581Z,3.16
2017-04-30T02:13:01.603Z,3.14
2017-04-30T02:14:12.643Z,3.19
2017-04-30T02:15:23.663Z,3.14
2017-04-30T02:16:34.689Z,3.05
2017-04-30T02:17:45.713Z,3.09
2017-04-30T02:18:56.738Z,3.09
2017-04-30T02:20:07.809Z,3.11
2017-04-30T02:21:18.846Z,3.11
2017-04-30T02:22:29.874Z,3.13
2017-04-30T02:23:40.908Z,3.05
2017-04-30T02:24:51.936Z,3.09
2017-04-30T02:26:02.967Z,3.14
2017-04-30T02:27:14.005Z,3.06
2017-04-30T02:28:25.042Z,3.13
2017-04-30T02:29:36.092Z,3.13
2017-04-30T02:30:47.365Z,3.13
2017-04-30T02:31:58.391Z,3.14
2017-04-30T02:33:09.428Z,3.06
2017-04-30T02:34:20.446Z,2.99
2017-04-30T02:35:31.678Z,3.08
2017-04-30T02:36:42.703Z,3.02
2017-04-30T02:37:53.930Z,3.03
2017-04-30T02:39:04.947Z,3.09
2017-04-30T02:40:16.182Z,3.05
2017-04-30T02:41:27.460Z,2.99
2017-04-30T02:42:38.488Z,3.03
2017-04-30T02:43:49.510Z,3.08
2017-04-30T02:45:00.533Z,3.08
2017-04-30T02:46:11.562Z,3.05
2017-04-30T02:47:22.592Z,3.11
2017-04-30T02:48:33.619Z,3.09
2017-04-30T02:49:44.660Z,3.19
2017-04-30T02:50:56.079Z,3.17
2017-04-30T02:52:07.159Z,3.14
2017-04-30T02:53:18.198Z,3.14
2017-04-30T02:54:29.443Z,3.13
2017-04-30T02:55:40.477Z,3.16
2017-04-30T02:56:51.511Z,3.17
2017-04-30T02:58:02.796Z,3.21
2017-04-30T02:59:13.830Z,3.23
2017-04-30T03:00:25.072Z,3.24
2017-04-30T03:01:36.108Z,3.24
2017-04-30T03:02:47.130Z,3.23
2017-04-30T03:03:58.198Z,3.26
2017-04-30T03:05:09.243Z,3.13
2017-04-30T03:06:20.265Z,3.19
2017-04-30T03:07:31.296Z,3.16
2017-04-30T03:08:42.535Z,3.16
2017-04-30T03:09:53.621Z,3.17
2017-04-30T03:11:04.640Z,3.11
2017-04-30T03:12:15.679Z,3.16
2017-04-30T03:13:26.913Z,3.14
2017-04-30T03:14:37.943Z,3.14
2017-04-30T03:15:49.175Z,3.09
2017-04-30T03:17:00.208Z,3.16
2017-04-30T03:18:11.238Z,3.16
2017-04-30T03:19:22.515Z,3.16
2017-04-30T03:20:33.542Z,3.17
2017-04-30T03:21:44.577Z,3.17
2017-04-30T03:22:55.592Z,3.26
2017-04-30T03:24:06.624Z,3.17
2017-04-30T03:25:17.653Z,3.14
2017-04-30T03:26:28.681Z,3.16
2017-04-30T03:27:39.720Z,3.14
2017-04-30T03:28:50.759Z,3.11
2017-04-30T03:30:02.041Z,3.13
2017-04-30T03:31:13.075Z,3.11
2017-04-30T03:32:24.096Z,3.17
2017-04-30T03:33:35.145Z,3.2
2017-04-30T03:34:46.407Z,3.19
2017-04-30T03:35:57.444Z,3.16
2017-04-30T03:37:08.507Z,3.16
2017-04-30T03:38:19.549Z,3.14
2017-04-30T03:39:30.781Z,3.16
2017-04-30T03:40:41.813Z,3.14
2017-04-30T03:41:52.850Z,3.13
2017-04-30T03:43:03.881Z,3.13
2017-04-30T03:44:14.911Z,3.14
2017-04-30T03:45:25.937Z,3.19
2017-04-30T03:46:37.373Z,3.13
2017-04-30T03:47:48.404Z,3.11
2017-04-30T03:48:59.434Z,3.11
2017-04-30T03:50:10.466Z,3.17
2017-04-30T03:51:21.543Z,3.08
2017-04-30T03:52:32.575Z,3.11
2017-04-30T03:53:43.801Z,3.19
2017-04-30T03:54:54.832Z,3.16
2017-04-30T03:56:05.868Z,3.14
2017-04-30T03:57:16.894Z,3.16
2017-04-30T03:58:27.931Z,3.2
2017-04-30T03:59:39.358Z,3.11
2017-04-30T04:00:50.384Z,3.14
2017-04-30T04:02:01.473Z,3.13
2017-04-30T04:03:12.491Z,3.13
2017-04-30T04:04:23.530Z,3.23
2017-04-30T04:05:34.556Z,3.26
2017-04-30T04:06:45.595Z,3.3
2017-04-30T04:07:56.821Z,3.29
2017-04-30T04:09:07.852Z,3.24
2017-04-30T04:10:19.080Z,3.3
2017-04-30T04:11:30.112Z,3.26
2017-04-30T04:12:41.181Z,3.2
2017-04-30T04:13:52.414Z,3.23
2017-04-30T04:15:03.479Z,3.26
2017-04-30T04:16:14.702Z,3.29
2017-04-30T04:17:25.744Z,3.29
2017-04-30T04:18:36.781Z,3.29
2017-04-30T04:19:47.804Z,3.32
2017-04-30T04:20:58.822Z,3.35
2017-04-30T04:22:10.053Z,3.49
2017-04-30T04:23:21.091Z,3.51
2017-04-30T04:24:32.114Z,3.37
2017-04-30T04:25:43.148Z,3.56
2017-04-30T04:26:54.383Z,3.57
2017-04-30T04:28:05.621Z,3.58
2017-04-30T04:29:16.649Z,3.67
2017-04-30T04:30:27.680Z,3.71
2017-04-30T04:31:38.709Z,3.76
2017-04-30T04:32:49.732Z,3.97
2017-04-30T04:34:00.818Z,4
2017-04-30T04:35:12.050Z,4.12
2017-04-30T04:36:23.078Z,4.14
2017-04-30T04:37:34.114Z,4.15
2017-04-30T04:38:45.149Z,4.08
2017-04-30T04:39:56.187Z,4.02
2017-04-30T04:41:07.205Z,4.03
2017-04-30T04:42:18.220Z,3.94
2017-04-30T04:43:29.479Z,3.96
2017-04-30T04:44:40.558Z,3.97
2017-04-30T04:45:51.788Z,3.96
2017-04-30T04:47:03.013Z,3.94
2017-04-30T04:48:14.243Z,3.89
2017-04-30T04:49:25.276Z,3.92
2017-04-30T04:50:36.314Z,3.99
2017-04-30T04:51:47.537Z,4.02
2017-04-30T04:52:58.577Z,4.02
2017-04-30T04:54:09.806Z,4.02
2017-04-30T04:55:20.915Z,4.1
2017-04-30T04:56:31.950Z,4.12
2017-04-30T04:57:42.988Z,4.18
2017-04-30T04:58:54.031Z,4.2
2017-04-30T05:00:05.065Z,4.17
2017-04-30T05:01:16.076Z,4.3
2017-04-30T05:02:27.101Z,4.29
2017-04-30T05:03:38.328Z,4.24
2017-04-30T05:04:49.346Z,4.26
2017-04-30T05:06:00.568Z,4.35
2017-04-30T05:07:11.608Z,4.35
2017-04-30T05:08:22.641Z,4.39
2017-04-30T05:09:34.271Z,4.46
2017-04-30T05:10:45.505Z,4.44
2017-04-30T05:11:56.527Z,4.4
2017-04-30T05:13:07.556Z,4.57
2017-04-30T05:14:18.794Z,4.56
2017-04-30T05:15:29.829Z,4.56
2017-04-30T05:16:41.119Z,4.58
2017-04-30T05:17:52.140Z,4.57
2017-04-30T05:19:03.564Z,4.66
2017-04-30T05:20:14.590Z,4.76
2017-04-30T05:21:25.607Z,4.72
2017-04-30T05:22:36.634Z,4.74
2017-04-30T05:23:47.677Z,4.74
2017-04-30T05:24:58.720Z,4.87
2017-04-30T05:26:09.758Z,4.88
2017-04-30T05:27:20.838Z,4.97
2017-04-30T05:28:32.060Z,4.97
2017-04-30T05:29:43.088Z,5.1
2017-04-30T05:30:54.116Z,5.2
2017-04-30T05:32:05.353Z,5.18
2017-04-30T05:33:16.591Z,5.28
2017-04-30T05:34:27.827Z,5.31
2017-04-30T05:35:38.861Z,5.27
2017-04-30T05:36:49.871Z,5.28
2017-04-30T05:38:01.153Z,5.28
2017-04-30T05:39:12.178Z,5.23
2017-04-30T05:40:23.215Z,5.44
2017-04-30T05:41:34.443Z,5.39
2017-04-30T05:42:45.472Z,5.44
2017-04-30T05:43:56.558Z,5.46
2017-04-30T05:45:07.581Z,5.49
2017-04-30T05:46:18.606Z,5.52
2017-04-30T05:47:29.839Z,5.57
2017-04-30T05:48:40.866Z,5.7
2017-04-30T05:49:51.894Z,5.8
2017-04-30T05:51:02.924Z,5.77
2017-04-30T05:52:13.955Z,5.87
2017-04-30T05:53:24.973Z,5.98
2017-04-30T05:54:36.008Z,6
2017-04-30T05:55:47.081Z,6.03
2017-04-30T05:56:58.311Z,6.14
2017-04-30T05:58:09.331Z,6.15
2017-04-30T05:59:20.365Z,6.24
2017-04-30T06:00:31.396Z,6.4
2017-04-30T06:01:42.623Z,6.52
2017-04-30T06:02:53.858Z,6.64
2017-04-30T06:04:05.102Z,6.79
2017-04-30T06:05:16.189Z,6.76
2017-04-30T06:06:27.428Z,6.94
2017-04-30T06:07:38.457Z,7.01
2017-04-30T06:08:49.483Z,7.12
2017-04-30T06:10:00.521Z,7.22
2017-04-30T06:11:11.564Z,7.56
2017-04-30T06:12:22.592Z,7.75
2017-04-30T06:13:33.613Z,7.88
2017-04-30T06:14:44.845Z,7.95
2017-04-30T06:15:55.928Z,8.17
2017-04-30T06:17:06.961Z,8.1
2017-04-30T06:18:18.010Z,8.24
2017-04-30T06:19:29.051Z,8.43
2017-04-30T06:20:40.489Z,8.39
2017-04-30T06:21:51.535Z,8.53
2017-04-30T06:23:02.582Z,8.6
2017-04-30T06:24:13.614Z,8.57
2017-04-30T06:25:24.656Z,8.69
2017-04-30T06:26:36.095Z,8.92
2017-04-30T06:27:47.134Z,9.23
2017-04-30T06:28:58.172Z,9.42
2017-04-30T06:30:09.406Z,9.78
2017-04-30T06:31:20.436Z,9.99
2017-04-30T06:32:31.486Z,10.33
2017-04-30T06:33:42.524Z,10.54
2017-04-30T06:34:53.577Z,10.73
2017-04-30T06:36:04.832Z,10.77
2017-04-30T06:37:15.914Z,10.73
2017-04-30T06:38:26.957Z,10.83
2017-04-30T06:39:38.193Z,10.84
2017-04-30T06:40:49.247Z,10.91
2017-04-30T06:42:00.487Z,11.03
2017-04-30T06:43:11.744Z,11.24
2017-04-30T06:44:22.992Z,11.3
2017-04-30T06:45:34.030Z,11.51
2017-04-30T06:46:45.077Z,11.71
2017-04-30T06:47:56.179Z,11.84
2017-04-30T06:49:07.231Z,11.97
2017-04-30T06:50:18.473Z,12.07
2017-04-30T06:51:29.723Z,12.2
2017-04-30T06:52:40.771Z,12.29
2017-04-30T06:53:51.809Z,12.34
2017-04-30T06:55:02.873Z,12.4
2017-04-30T06:56:13.914Z,12.37
2017-04-30T06:57:25.155Z,12.48
2017-04-30T06:58:36.256Z,12.58
2017-04-30T06:59:47.321Z,12.83
2017-04-30T07:00:58.361Z,12.88
2017-04-30T07:02:09.406Z,12.8
2017-04-30T07:03:20.652Z,12.83
2017-04-30T07:04:31.892Z,12.94
2017-04-30T07:05:42.941Z,12.99
2017-04-30T07:06:54.376Z,13.11
2017-04-30T07:08:05.448Z,13.24
2017-04-30T07:09:16.703Z,13.44
2017-04-30T07:10:27.763Z,13.53
2017-04-30T07:11:38.815Z,13.69
2017-04-30T07:12:49.874Z,13.58
2017-04-30T07:14:01.130Z,13.75
2017-04-30T07:15:12.376Z,13.99
2017-04-30T07:16:23.419Z,14.16
2017-04-30T07:17:34.507Z,14.51
2017-04-30T07:18:45.765Z,14.56
2017-04-30T07:19:56.859Z,14.59
2017-04-30T07:21:08.116Z,14.66
2017-04-30T07:22:19.161Z,14.57
2017-04-30T07:23:30.418Z,14.56
2017-04-30T07:24:41.490Z,14.6
2017-04-30T07:25:52.544Z,14.49
2017-04-30T07:27:03.589Z,14.48
2017-04-30T07:28:14.648Z,14.61
2017-04-30T07:29:25.696Z,14.63
2017-04-30T07:30:36.800Z,14.85
2017-04-30T07:31:47.850Z,15.05
2017-04-30T07:32:58.899Z,15.15
2017-04-30T07:34:09.944Z,15.31
2017-04-30T07:35:21.000Z,15.41
2017-04-30T07:36:32.035Z,15.58
2017-04-30T07:37:43.080Z,15.68
2017-04-30T07:38:54.132Z,15.74
2017-04-30T07:40:05.429Z,15.73
2017-04-30T07:41:16.529Z,15.68
2017-04-30T07:42:27.587Z,15.59
2017-04-30T07:43:38.642Z,15.58
2017-04-30T07:44:49.682Z,15.59
2017-04-30T07:46:00.735Z,15.44
2017-04-30T07:47:12.039Z,15.45
2017-04-30T07:48:23.089Z,15.45
2017-04-30T07:49:34.128Z,15.41
2017-04-30T07:50:45.181Z,15.47
2017-04-30T07:51:56.237Z,15.31
2017-04-30T07:53:07.289Z,15.15
2017-04-30T07:54:18.360Z,15.22
2017-04-30T07:55:29.611Z,15.16
2017-04-30T07:56:40.664Z,15.2
2017-04-30T07:57:51.708Z,15.43
2017-04-30T07:59:02.764Z,15.53
2017-04-30T08:00:13.820Z,15.4
2017-04-30T08:01:24.880Z,15.34
2017-04-30T08:02:35.942Z,15.47
2017-04-30T08:03:46.998Z,15.45
2017-04-30T08:04:58.045Z,15.41
2017-04-30T08:06:09.103Z,15.58
2017-04-30T08:07:20.133Z,15.74
2017-04-30T08:08:31.233Z,15.89
2017-04-30T08:09:42.271Z,15.92
2017-04-30T08:10:53.324Z,16.04
2017-04-30T08:12:04.373Z,16.14
2017-04-30T08:13:15.425Z,16.42
2017-04-30T08:14:26.476Z,16.51
2017-04-30T08:15:37.738Z,16.4
2017-04-30T08:16:48.792Z,16.4
2017-04-30T08:18:00.097Z,16.52
2017-04-30T08:19:11.200Z,16.69
2017-04-30T08:20:22.259Z,16.73
2017-04-30T08:21:33.317Z,16.58
2017-04-30T08:22:44.375Z,16.59
2017-04-30T08:23:55.634Z,16.63
2017-04-30T08:25:06.685Z,16.55
2017-04-30T08:26:17.740Z,16.58
2017-04-30T08:27:28.797Z,16.87
2017-04-30T08:28:40.052Z,17.05
2017-04-30T08:29:51.115Z,17.09
2017-04-30T08:31:02.368Z,17.09
2017-04-30T08:32:13.421Z,16.92
2017-04-30T08:33:24.469Z,16.81
2017-04-30T08:34:35.586Z,16.94
2017-04-30T08:35:46.638Z,16.88
2017-04-30T08:36:57.690Z,16.92
2017-04-30T08:38:08.745Z,16.97
2017-04-30T08:39:20.001Z,17.06
2017-04-30T08:40:31.054Z,17.1
2017-04-30T08:41:42.140Z,17.05
2017-04-30T08:42:53.187Z,17.25
2017-04-30T08:44:04.242Z,17.27
2017-04-30T08:45:15.342Z,17.31
2017-04-30T08:46:26.596Z,17.32
2017-04-30T08:47:37.666Z,17.43
2017-04-30T08:48:48.724Z,17.71
2017-04-30T08:49:59.761Z,17.81
2017-04-30T08:51:11.028Z,17.98
2017-04-30T08:52:22.275Z,18.13
2017-04-30T08:53:33.318Z,17.98
2017-04-30T08:54:44.585Z,18.02
2017-04-30T08:55:55.883Z,18.01
2017-04-30T08:57:07.143Z,17.8
2017-04-30T08:58:18.397Z,17.81
2017-04-30T08:59:29.655Z,17.77
2017-04-30T09:00:40.710Z,17.73
2017-04-30T09:01:51.761Z,17.66
2017-04-30T09:03:03.027Z,17.6
2017-04-30T09:04:14.079Z,17.54
2017-04-30T09:05:25.137Z,17.54
2017-04-30T09:06:36.233Z,17.46
2017-04-30T09:07:47.286Z,17.45
2017-04-30T09:08:58.349Z,17.55
2017-04-30T09:10:09.403Z,17.69
2017-04-30T09:11:20.446Z,17.73
2017-04-30T09:12:31.495Z,17.8
2017-04-30T09:13:42.555Z,17.96
2017-04-30T09:14:53.804Z,18.06
2017-04-30T09:16:04.851Z,18.21
2017-04-30T09:17:16.113Z,18.14
2017-04-30T09:18:27.172Z,17.99
2017-04-30T09:19:38.235Z,17.84
2017-04-30T09:20:49.288Z,17.87
2017-04-30T09:22:00.536Z,17.83
2017-04-30T09:23:11.585Z,17.8
2017-04-30T09:24:22.642Z,17.87
2017-04-30T09:25:33.891Z,17.79
2017-04-30T09:26:45.135Z,17.8
2017-04-30T09:27:56.438Z,17.83
2017-04-30T09:29:07.485Z,17.54
2017-04-30T09:30:18.534Z,17.76
2017-04-30T09:31:29.803Z,17.95
2017-04-30T09:32:40.855Z,18.13
2017-04-30T09:33:51.913Z,18.24
2017-04-30T09:35:02.970Z,18.44
2017-04-30T09:36:14.215Z,18.6
2017-04-30T09:37:25.671Z,18.61
2017-04-30T09:38:36.977Z,18.51
2017-04-30T09:39:48.035Z,18.6
2017-04-30T09:40:59.098Z,18.87
2017-04-30T09:42:10.154Z,19.07
2017-04-30T09:43:21.201Z,19.09
2017-04-30T09:44:32.264Z,19.13
2017-04-30T09:45:43.322Z,19.19
2017-04-30T09:46:54.360Z,19.27
2017-04-30T09:48:05.424Z,19.46
2017-04-30T09:49:16.527Z,19.6
2017-04-30T09:50:27.586Z,19.64
2017-04-30T09:51:38.641Z,19.93
2017-04-30T09:52:49.724Z,19.92
2017-04-30T09:54:00.777Z,19.97
2017-04-30T09:55:12.092Z,19.8
2017-04-30T09:56:23.147Z,19.78
2017-04-30T09:57:34.190Z,19.75
2017-04-30T09:58:45.260Z,19.65
2017-04-30T09:59:56.314Z,19.55
2017-04-30T10:01:07.384Z,19.46
2017-04-30T10:02:18.854Z,19.12
2017-04-30T10:03:29.914Z,18.82
2017-04-30T10:04:40.968Z,18.74
2017-04-30T10:05:52.021Z,18.71
2017-04-30T10:07:03.270Z,18.68
2017-04-30T10:08:14.322Z,18.6
2017-04-30T10:09:25.371Z,18.71
2017-04-30T10:10:36.434Z,18.82
2017-04-30T10:11:47.727Z,18.96
2017-04-30T10:12:58.787Z,19.09
2017-04-30T10:14:09.832Z,18.94
2017-04-30T10:15:20.890Z,18.87
2017-04-30T10:16:31.946Z,18.99
2017-04-30T10:17:42.995Z,19.12
2017-04-30T10:18:54.261Z,19.25
2017-04-30T10:20:05.325Z,19.17
2017-04-30T10:21:16.583Z,19.27
2017-04-30T10:22:27.684Z,19.15
2017-04-30T10:23:38.747Z,18.97
2017-04-30T10:24:50.007Z,19.17
2017-04-30T10:26:01.071Z,19.15
2017-04-30T10:27:12.331Z,19.19
2017-04-30T10:28:23.578Z,19.15
2017-04-30T10:29:34.653Z,19.24
2017-04-30T10:30:45.702Z,19.35
2017-04-30T10:31:56.751Z,19.12
2017-04-30T10:33:07.888Z,19.13
2017-04-30T10:34:18.950Z,19.2
2017-04-30T10:35:30.012Z,19.24
2017-04-30T10:36:41.067Z,19.45
2017-04-30T10:37:52.119Z,19.47
2017-04-30T10:39:03.222Z,19.52
2017-04-30T10:40:14.262Z,19.83
2017-04-30T10:41:25.341Z,19.93
2017-04-30T10:42:36.397Z,20
2017-04-30T10:43:47.445Z,19.93
2017-04-30T10:44:58.703Z,19.9
2017-04-30T10:46:09.752Z,19.95
2017-04-30T10:47:20.818Z,20
2017-04-30T10:48:32.083Z,20.01
2017-04-30T10:49:43.139Z,19.87
2017-04-30T10:50:54.239Z,19.92
2017-04-30T10:52:05.290Z,19.95
2017-04-30T10:53:16.357Z,19.9
2017-04-30T10:54:27.431Z,19.87
2017-04-30T10:55:38.895Z,20.07
2017-04-30T10:56:49.950Z,20.22
2017-04-30T10:58:01.005Z,20.18
2017-04-30T10:59:12.077Z,20.15
2017-04-30T11:00:23.173Z,19.93
2017-04-30T11:01:34.234Z,19.85
2017-04-30T11:02:45.294Z,19.8
2017-04-30T11:03:56.364Z,19.79
2017-04-30T11:05:07.426Z,19.78
2017-04-30T11:06:18.476Z,19.65
2017-04-30T11:07:29.510Z,19.52
2017-04-30T11:08:40.760Z,19.45
2017-04-30T11:09:51.811Z,19.13
2017-04-30T11:11:03.066Z,19.1
2017-04-30T11:12:14.114Z,19.07
2017-04-30T11:13:25.164Z,19.15
2017-04-30T11:14:36.204Z,19.4
2017-04-30T11:15:47.311Z,19.47
2017-04-30T11:16:58.354Z,19.83
2017-04-30T11:18:09.414Z,19.89
2017-04-30T11:19:20.483Z,19.92
2017-04-30T11:20:31.550Z,20.27
2017-04-30T11:21:42.601Z,20.38
2017-04-30T11:22:53.649Z,20.56
2017-04-30T11:24:04.709Z,20.27
2017-04-30T11:25:15.766Z,20.08
2017-04-30T11:26:27.215Z,19.95
2017-04-30T11:27:38.307Z,19.67
2017-04-30T11:28:49.355Z,19.52
2017-04-30T11:30:00.401Z,19.42
2017-04-30T11:31:11.454Z,19.23
2017-04-30T11:32:22.552Z,19.43
2017-04-30T11:33:33.627Z,19.6
2017-04-30T11:34:44.676Z,19.78
2017-04-30T11:35:55.718Z,19.75
2017-04-30T11:37:06.756Z,19.82
2017-04-30T11:38:17.803Z,19.65
2017-04-30T11:39:28.846Z,19.79
2017-04-30T11:40:40.112Z,19.9
2017-04-30T11:41:51.361Z,19.86
2017-04-30T11:43:02.414Z,19.9
2017-04-30T11:44:13.464Z,20.02
2017-04-30T11:45:24.725Z,20.19
2017-04-30T11:46:35.786Z,19.93
2017-04-30T11:47:46.834Z,20.01
2017-04-30T11:48:57.906Z,19.98
2017-04-30T11:50:09.369Z,20.01
2017-04-30T11:51:20.419Z,19.95
2017-04-30T11:52:31.667Z,20.08
2017-04-30T11:53:42.757Z,20.2
2017-04-30T11:54:53.806Z,20.1
2017-04-30T11:56:05.082Z,20.02
2017-04-30T11:57:16.220Z,20.16
2017-04-30T11:58:27.267Z,20.08
2017-04-30T11:59:38.324Z,20.25
2017-04-30T12:00:49.372Z,20.23
2017-04-30T12:02:00.414Z,20.4
2017-04-30T12:03:11.657Z,20.44
2017-04-30T12:04:22.711Z,20.42
2017-04-30T12:05:33.745Z,20.3
2017-04-30T12:06:44.780Z,20.4
2017-04-30T12:07:55.834Z,20.46
2017-04-30T12:09:07.095Z,20.41
2017-04-30T12:10:18.150Z,20.42
2017-04-30T12:11:29.204Z,20.44
2017-04-30T12:12:40.273Z,20.6
2017-04-30T12:13:51.410Z,20.56
2017-04-30T12:15:02.465Z,20.64
2017-04-30T12:16:13.522Z,20.48
2017-04-30T12:17:24.603Z,20.56
2017-04-30T12:18:35.659Z,20.61
2017-04-30T12:19:46.706Z,20.78
2017-04-30T12:20:57.956Z,21.01
2017-04-30T12:22:09.008Z,20.97
2017-04-30T12:23:20.062Z,20.93
2017-04-30T12:24:31.110Z,21.03
2017-04-30T12:25:42.157Z,20.91
2017-04-30T12:26:53.210Z,20.82
2017-04-30T12:28:04.309Z,20.75
2017-04-30T12:29:15.345Z,20.64
2017-04-30T12:30:26.407Z,20.68
2017-04-30T12:31:37.657Z,20.72
2017-04-30T12:32:48.696Z,20.78
2017-04-30T12:33:59.749Z,20.94
2017-04-30T12:35:11.019Z,20.96
2017-04-30T12:36:22.265Z,20.98
2017-04-30T12:37:33.312Z,20.78
2017-04-30T12:38:44.417Z,20.22
2017-04-30T12:39:55.468Z,20.01
2017-04-30T12:41:06.717Z,19.68
2017-04-30T12:42:17.973Z,19.56
2017-04-30T12:43:29.018Z,19.64
2017-04-30T12:44:40.126Z,19.78
2017-04-30T12:45:51.212Z,19.8
2017-04-30T12:47:02.259Z,20
2017-04-30T12:48:13.501Z,19.93
2017-04-30T12:49:24.552Z,19.93
2017-04-30T12:50:35.603Z,19.78
2017-04-30T12:51:46.654Z,19.74
2017-04-30T12:52:57.698Z,19.68
2017-04-30T12:54:08.747Z,19.7
2017-04-30T12:55:19.799Z,19.8
2017-04-30T12:56:30.927Z,19.83
2017-04-30T12:57:41.972Z,19.7
2017-04-30T12:58:53.026Z,19.46
2017-04-30T13:00:04.087Z,19.42
2017-04-30T13:01:15.546Z,19.46
2017-04-30T13:02:26.576Z,19.61
2017-04-30T13:03:37.623Z,19.64
2017-04-30T13:04:48.679Z,19.55
2017-04-30T13:05:59.978Z,19.56
2017-04-30T13:07:11.016Z,19.63
2017-04-30T13:08:22.058Z,19.56
2017-04-30T13:09:33.113Z,19.43
2017-04-30T13:10:44.149Z,19.4
2017-04-30T13:11:55.188Z,19.23
2017-04-30T13:13:06.234Z,19.23
2017-04-30T13:14:17.269Z,19.12
2017-04-30T13:15:28.303Z,18.99
2017-04-30T13:16:39.352Z,18.94
2017-04-30T13:17:50.398Z,18.82
2017-04-30T13:19:01.441Z,18.6
2017-04-30T13:20:12.482Z,18.44
2017-04-30T13:21:23.576Z,18.39
2017-04-30T13:22:34.817Z,18.27
2017-04-30T13:23:45.872Z,18.23
2017-04-30T13:24:57.142Z,18.1
2017-04-30T13:26:08.181Z,18.05
2017-04-30T13:27:19.225Z,17.94
2017-04-30T13:28:30.268Z,17.88
2017-04-30T13:29:41.318Z,17.99
2017-04-30T13:30:52.355Z,18.17
2017-04-30T13:32:03.794Z,18.5
2017-04-30T13:33:15.043Z,18.61
2017-04-30T13:34:26.094Z,18.81
2017-04-30T13:35:37.142Z,19.02
2017-04-30T13:36:48.441Z,19.27
2017-04-30T13:37:59.488Z,19.13
2017-04-30T13:39:10.736Z,19.16
2017-04-30T13:40:21.794Z,19.09
2017-04-30T13:41:33.038Z,18.99
2017-04-30T13:42:44.077Z,19.09
2017-04-30T13:43:55.136Z,19.24
2017-04-30T13:45:06.184Z,19.2
2017-04-30T13:46:17.231Z,19.1
2017-04-30T13:47:28.318Z,19.15
2017-04-30T13:48:39.363Z,19.09
2017-04-30T13:49:50.416Z,18.76
2017-04-30T13:51:01.475Z,18.61
2017-04-30T13:52:12.524Z,18.41
2017-04-30T13:53:23.565Z,18.2
2017-04-30T13:54:34.604Z,18.11
2017-04-30T13:55:45.643Z,18.05
2017-04-30T13:56:56.683Z,18.08
2017-04-30T13:58:07.697Z,18.11
2017-04-30T13:59:18.749Z,17.99
2017-04-30T14:00:30.002Z,18.05
2017-04-30T14:01:41.231Z,18.02
2017-04-30T14:02:52.272Z,18.11
2017-04-30T14:04:03.318Z,18.06
2017-04-30T14:05:14.559Z,18.11
2017-04-30T14:06:25.615Z,18.21
2017-04-30T14:07:36.661Z,18.41
2017-04-30T14:08:47.714Z,18.47
2017-04-30T14:09:58.765Z,18.54
2017-04-30T14:11:10.015Z,18.74
2017-04-30T14:12:21.055Z,18.71
2017-04-30T14:13:32.160Z,18.72
2017-04-30T14:14:43.198Z,18.82
2017-04-30T14:15:54.228Z,19.02
2017-04-30T14:17:05.685Z,18.99
2017-04-30T14:18:16.728Z,19.07
2017-04-30T14:19:27.983Z,18.96
2017-04-30T14:20:39.045Z,18.9
2017-04-30T14:21:50.289Z,18.94
2017-04-30T14:23:01.335Z,18.94
2017-04-30T14:24:12.461Z,18.96
2017-04-30T14:25:23.499Z,18.91
2017-04-30T14:26:34.541Z,18.99
2017-04-30T14:27:45.582Z,18.84
2017-04-30T14:28:56.620Z,18.9
2017-04-30T14:30:07.659Z,18.79
2017-04-30T14:31:19.103Z,18.75
2017-04-30T14:32:30.138Z,18.84
2017-04-30T14:33:41.380Z,18.71
2017-04-30T14:34:52.473Z,18.75
2017-04-30T14:36:03.534Z,18.72
2017-04-30T14:37:14.585Z,18.6
2017-04-30T14:38:25.620Z,18.63
2017-04-30T14:39:37.073Z,18.75
2017-04-30T14:40:48.112Z,18.74
2017-04-30T14:41:59.549Z,18.81
2017-04-30T14:43:10.791Z,18.84
2017-04-30T14:44:22.062Z,18.78
2017-04-30T14:45:33.100Z,18.82
2017-04-30T14:46:44.139Z,18.84
2017-04-30T14:47:55.181Z,18.91
2017-04-30T14:49:06.224Z,18.84
2017-04-30T14:50:17.463Z,18.86
2017-04-30T14:51:28.511Z,18.82
2017-04-30T14:52:39.569Z,18.86
2017-04-30T14:53:50.603Z,18.79
2017-04-30T14:55:01.651Z,18.76
2017-04-30T14:56:12.692Z,18.9
2017-04-30T14:57:23.732Z,18.9
2017-04-30T14:58:34.779Z,18.89
2017-04-30T14:59:45.812Z,18.91
2017-04-30T15:00:56.903Z,18.79
2017-04-30T15:02:07.943Z,18.79
2017-04-30T15:03:18.980Z,18.82
2017-04-30T15:04:30.015Z,18.78
2017-04-30T15:05:41.070Z,18.81
2017-04-30T15:06:52.112Z,18.75
2017-04-30T15:08:03.156Z,18.61
2017-04-30T15:09:14.402Z,18.63
2017-04-30T15:10:25.461Z,18.53
2017-04-30T15:11:36.486Z,18.45
2017-04-30T15:12:47.530Z,18.41
2017-04-30T15:13:58.785Z,18.39
2017-04-30T15:15:10.027Z,18.47
2017-04-30T15:16:21.522Z,18.51
2017-04-30T15:17:32.560Z,18.53
2017-04-30T15:18:43.819Z,18.53
2017-04-30T15:19:54.886Z,18.44
2017-04-30T15:21:05.938Z,18.35
2017-04-30T15:22:16.990Z,18.27
2017-04-30T15:23:28.040Z,18.2
2017-04-30T15:24:39.080Z,18.26
2017-04-30T15:25:50.317Z,18.34
2017-04-30T15:27:01.354Z,18.35
2017-04-30T15:28:12.384Z,18.36
2017-04-30T15:29:23.624Z,18.35
2017-04-30T15:30:35.069Z,18.34
2017-04-30T15:31:46.108Z,18.27